sensor_id;sensor_type;location;lat;lon;timestamp;P1;durP1;ratioP1;P2;durP2;ratioP2
40286;SDS011;25998;46.604;13.610;2022-11-25T00:01:17;5.45;;;2.95;;
40286;SDS011;25998;46.604;13.610;2022-11-25T00:04:30;6.13;;;3.40;;
40286;SDS011;25998;46.604;13.610;2022-11-25T00:07:45;3.47;;;2.63;;
40286;SDS011;25998;46.604;13.610;2022-11-25T00:10:59;4.10;;;3.08;;
40286;SDS011;25998;46.604;13.610;2022-11-25T00:14:11;7.05;;;3.70;;
40286;SDS011;25998;46.604;13.610;2022-11-25T00:17:23;5.72;;;3.92;;
40286;SDS011;25998;46.604;13.610;2022-11-25T00:20:35;66.00;;;6.72;;
40286;SDS011;25998;46.604;13.610;2022-11-25T00:23:53;36.75;;;5.85;;
40286;SDS011;25998;46.604;13.610;2022-11-25T00:27:05;52.38;;;6.05;;
40286;SDS011;25998;46.604;13.610;2022-11-25T00:30:16;8.38;;;3.97;;
40286;SDS011;25998;46.604;13.610;2022-11-25T00:33:27;14.70;;;3.97;;
40286;SDS011;25998;46.604;13.610;2022-11-25T00:36:38;5.25;;;3.10;;
40286;SDS011;25998;46.604;13.610;2022-11-25T00:39:49;5.00;;;3.47;;
40286;SDS011;25998;46.604;13.610;2022-11-25T00:43:01;4.35;;;3.65;;
40286;SDS011;25998;46.604;13.610;2022-11-25T00:46:30;4.95;;;3.60;;
40286;SDS011;25998;46.604;13.610;2022-11-25T00:49:42;4.20;;;3.10;;
40286;SDS011;25998;46.604;13.610;2022-11-25T00:52:54;8.40;;;4.25;;
40286;SDS011;25998;46.604;13.610;2022-11-25T00:56:05;9.18;;;4.65;;
40286;SDS011;25998;46.604;13.610;2022-11-25T00:59:22;8.55;;;4.75;;
40286;SDS011;25998;46.604;13.610;2022-11-25T01:02:33;5.72;;;3.80;;
40286;SDS011;25998;46.604;13.610;2022-11-25T01:05:43;4.20;;;3.40;;
40286;SDS011;25998;46.604;13.610;2022-11-25T01:08:54;4.45;;;3.22;;
40286;SDS011;25998;46.604;13.610;2022-11-25T01:12:05;3.83;;;3.30;;
40286;SDS011;25998;46.604;13.610;2022-11-25T01:15:16;4.50;;;3.55;;
40286;SDS011;25998;46.604;13.610;2022-11-25T01:18:27;33.00;;;5.07;;
40286;SDS011;25998;46.604;13.610;2022-11-25T01:21:38;8.05;;;6.00;;
40286;SDS011;25998;46.604;13.610;2022-11-25T01:24:49;7.18;;;5.05;;
40286;SDS011;25998;46.604;13.610;2022-11-25T01:28:00;4.05;;;3.10;;
40286;SDS011;25998;46.604;13.610;2022-11-25T01:31:15;5.15;;;3.53;;
40286;SDS011;25998;46.604;13.610;2022-11-25T01:34:27;9.90;;;4.53;;
40286;SDS011;25998;46.604;13.610;2022-11-25T01:37:41;54.55;;;5.88;;
40286;SDS011;25998;46.604;13.610;2022-11-25T01:40:51;4.80;;;3.85;;
40286;SDS011;25998;46.604;13.610;2022-11-25T01:47:15;5.20;;;3.95;;
40286;SDS011;25998;46.604;13.610;2022-11-25T01:50:32;5.00;;;3.63;;
40286;SDS011;25998;46.604;13.610;2022-11-25T01:53:44;5.15;;;3.50;;
40286;SDS011;25998;46.604;13.610;2022-11-25T01:57:00;4.60;;;3.10;;
40286;SDS011;25998;46.604;13.610;2022-11-25T02:00:14;4.90;;;2.55;;
40286;SDS011;25998;46.604;13.610;2022-11-25T02:03:40;5.10;;;2.60;;
40286;SDS011;25998;46.604;13.610;2022-11-25T02:06:54;4.15;;;2.25;;
40286;SDS011;25998;46.604;13.610;2022-11-25T02:10:12;4.72;;;2.15;;
40286;SDS011;25998;46.604;13.610;2022-11-25T02:13:25;4.32;;;2.10;;
40286;SDS011;25998;46.604;13.610;2022-11-25T02:16:37;4.47;;;3.00;;
40286;SDS011;25998;46.604;13.610;2022-11-25T02:19:57;3.72;;;2.70;;
40286;SDS011;25998;46.604;13.610;2022-11-25T02:26:39;3.07;;;1.90;;
40286;SDS011;25998;46.604;13.610;2022-11-25T02:29:50;3.85;;;2.60;;
40286;SDS011;25998;46.604;13.610;2022-11-25T02:33:02;4.05;;;2.50;;
40286;SDS011;25998;46.604;13.610;2022-11-25T02:36:15;3.47;;;2.25;;
40286;SDS011;25998;46.604;13.610;2022-11-25T02:39:29;3.30;;;2.30;;
40286;SDS011;25998;46.604;13.610;2022-11-25T02:42:39;4.50;;;2.47;;
40286;SDS011;25998;46.604;13.610;2022-11-25T02:45:56;6.65;;;3.33;;
40286;SDS011;25998;46.604;13.610;2022-11-25T02:49:12;4.53;;;2.95;;
40286;SDS011;25998;46.604;13.610;2022-11-25T02:52:23;5.07;;;2.60;;
40286;SDS011;25998;46.604;13.610;2022-11-25T02:55:34;5.38;;;3.13;;
40286;SDS011;25998;46.604;13.610;2022-11-25T02:58:44;4.50;;;2.83;;
40286;SDS011;25998;46.604;13.610;2022-11-25T03:01:55;5.78;;;3.63;;
40286;SDS011;25998;46.604;13.610;2022-11-25T03:05:06;5.20;;;3.50;;
40286;SDS011;25998;46.604;13.610;2022-11-25T03:08:17;207.95;;;16.90;;
40286;SDS011;25998;46.604;13.610;2022-11-25T03:11:28;264.75;;;19.23;;
40286;SDS011;25998;46.604;13.610;2022-11-25T03:14:58;38.00;;;6.37;;
40286;SDS011;25998;46.604;13.610;2022-11-25T03:18:09;263.95;;;23.02;;
40286;SDS011;25998;46.604;13.610;2022-11-25T03:21:20;107.30;;;9.88;;
40286;SDS011;25998;46.604;13.610;2022-11-25T03:24:31;195.55;;;15.30;;
40286;SDS011;25998;46.604;13.610;2022-11-25T03:27:42;120.32;;;10.02;;
40286;SDS011;25998;46.604;13.610;2022-11-25T03:30:54;11.30;;;5.38;;
40286;SDS011;25998;46.604;13.610;2022-11-25T03:34:04;7.75;;;5.38;;
40286;SDS011;25998;46.604;13.610;2022-11-25T03:37:15;6.38;;;4.10;;
40286;SDS011;25998;46.604;13.610;2022-11-25T03:40:26;5.97;;;4.15;;
40286;SDS011;25998;46.604;13.610;2022-11-25T03:43:37;3.75;;;2.92;;
40286;SDS011;25998;46.604;13.610;2022-11-25T03:46:48;4.78;;;3.00;;
40286;SDS011;25998;46.604;13.610;2022-11-25T03:50:02;3.97;;;3.20;;
40286;SDS011;25998;46.604;13.610;2022-11-25T03:53:13;5.68;;;4.13;;
40286;SDS011;25998;46.604;13.610;2022-11-25T03:56:27;8.93;;;3.35;;
40286;SDS011;25998;46.604;13.610;2022-11-25T03:59:38;7.07;;;4.43;;
40286;SDS011;25998;46.604;13.610;2022-11-25T04:02:49;4.78;;;3.15;;
40286;SDS011;25998;46.604;13.610;2022-11-25T04:06:00;3.65;;;2.65;;
40286;SDS011;25998;46.604;13.610;2022-11-25T04:09:10;4.60;;;3.13;;
40286;SDS011;25998;46.604;13.610;2022-11-25T04:12:21;5.00;;;3.20;;
40286;SDS011;25998;46.604;13.610;2022-11-25T04:15:51;3.67;;;2.70;;
40286;SDS011;25998;46.604;13.610;2022-11-25T04:19:02;4.13;;;2.90;;
40286;SDS011;25998;46.604;13.610;2022-11-25T04:22:13;5.10;;;2.60;;
40286;SDS011;25998;46.604;13.610;2022-11-25T04:25:23;4.20;;;2.13;;
40286;SDS011;25998;46.604;13.610;2022-11-25T04:28:34;4.55;;;2.22;;
40286;SDS011;25998;46.604;13.610;2022-11-25T04:31:45;3.75;;;2.67;;
40286;SDS011;25998;46.604;13.610;2022-11-25T04:34:56;5.80;;;3.25;;
40286;SDS011;25998;46.604;13.610;2022-11-25T04:38:07;3.67;;;2.60;;
40286;SDS011;25998;46.604;13.610;2022-11-25T04:41:18;3.58;;;2.55;;
40286;SDS011;25998;46.604;13.610;2022-11-25T04:44:28;3.15;;;2.20;;
40286;SDS011;25998;46.604;13.610;2022-11-25T04:47:39;3.30;;;2.38;;
40286;SDS011;25998;46.604;13.610;2022-11-25T04:50:51;4.15;;;2.50;;
40286;SDS011;25998;46.604;13.610;2022-11-25T04:54:02;3.38;;;2.30;;
40286;SDS011;25998;46.604;13.610;2022-11-25T04:57:13;3.80;;;2.45;;
40286;SDS011;25998;46.604;13.610;2022-11-25T05:00:24;2.90;;;2.30;;
40286;SDS011;25998;46.604;13.610;2022-11-25T05:03:35;2.58;;;2.10;;
40286;SDS011;25998;46.604;13.610;2022-11-25T05:06:46;3.17;;;2.33;;
40286;SDS011;25998;46.604;13.610;2022-11-25T05:10:00;4.13;;;2.38;;
40286;SDS011;25998;46.604;13.610;2022-11-25T05:13:11;3.88;;;2.33;;
40286;SDS011;25998;46.604;13.610;2022-11-25T05:16:22;4.13;;;2.20;;
40286;SDS011;25998;46.604;13.610;2022-11-25T05:19:33;4.47;;;2.58;;
40286;SDS011;25998;46.604;13.610;2022-11-25T05:22:45;2.88;;;2.00;;
40286;SDS011;25998;46.604;13.610;2022-11-25T05:26:00;3.13;;;2.47;;
40286;SDS011;25998;46.604;13.610;2022-11-25T05:29:11;3.70;;;2.47;;
40286;SDS011;25998;46.604;13.610;2022-11-25T05:32:22;3.13;;;2.45;;
40286;SDS011;25998;46.604;13.610;2022-11-25T05:35:33;4.15;;;3.00;;
40286;SDS011;25998;46.604;13.610;2022-11-25T05:38:44;5.43;;;2.80;;
40286;SDS011;25998;46.604;13.610;2022-11-25T05:41:55;3.78;;;2.72;;
40286;SDS011;25998;46.604;13.610;2022-11-25T05:45:06;4.53;;;2.38;;
40286;SDS011;25998;46.604;13.610;2022-11-25T05:48:17;4.53;;;2.30;;
40286;SDS011;25998;46.604;13.610;2022-11-25T05:51:28;3.45;;;2.33;;
40286;SDS011;25998;46.604;13.610;2022-11-25T05:54:39;3.85;;;2.15;;
40286;SDS011;25998;46.604;13.610;2022-11-25T05:57:50;2.70;;;1.70;;
40286;SDS011;25998;46.604;13.610;2022-11-25T06:01:04;3.10;;;2.30;;
40286;SDS011;25998;46.604;13.610;2022-11-25T06:04:17;3.55;;;2.80;;
40286;SDS011;25998;46.604;13.610;2022-11-25T06:07:28;3.78;;;2.70;;
40286;SDS011;25998;46.604;13.610;2022-11-25T06:10:39;3.75;;;2.13;;
40286;SDS011;25998;46.604;13.610;2022-11-25T06:13:50;3.75;;;2.42;;
40286;SDS011;25998;46.604;13.610;2022-11-25T06:17:01;3.95;;;2.55;;
40286;SDS011;25998;46.604;13.610;2022-11-25T06:20:14;3.88;;;2.30;;
40286;SDS011;25998;46.604;13.610;2022-11-25T06:23:25;4.53;;;2.13;;
40286;SDS011;25998;46.604;13.610;2022-11-25T06:26:36;7.28;;;2.60;;
40286;SDS011;25998;46.604;13.610;2022-11-25T06:29:47;7.90;;;2.55;;
40286;SDS011;25998;46.604;13.610;2022-11-25T06:32:58;9.77;;;2.92;;
40286;SDS011;25998;46.604;13.610;2022-11-25T06:36:09;8.70;;;3.90;;
40286;SDS011;25998;46.604;13.610;2022-11-25T06:39:26;7.63;;;3.45;;
40286;SDS011;25998;46.604;13.610;2022-11-25T06:42:37;3.95;;;2.55;;
40286;SDS011;25998;46.604;13.610;2022-11-25T06:45:50;7.85;;;6.63;;
40286;SDS011;25998;46.604;13.610;2022-11-25T06:49:01;10.00;;;6.65;;
40286;SDS011;25998;46.604;13.610;2022-11-25T06:52:12;6.97;;;5.22;;
40286;SDS011;25998;46.604;13.610;2022-11-25T06:55:23;48.08;;;20.27;;
40286;SDS011;25998;46.604;13.610;2022-11-25T06:58:34;35.28;;;18.30;;
40286;SDS011;25998;46.604;13.610;2022-11-25T07:01:46;19.20;;;9.85;;
40286;SDS011;25998;46.604;13.610;2022-11-25T07:04:57;18.15;;;12.88;;
40286;SDS011;25998;46.604;13.610;2022-11-25T07:08:08;93.13;;;78.18;;
40286;SDS011;25998;46.604;13.610;2022-11-25T07:11:22;129.05;;;112.75;;
40286;SDS011;25998;46.604;13.610;2022-11-25T07:14:35;48.22;;;40.38;;
40286;SDS011;25998;46.604;13.610;2022-11-25T07:17:49;62.40;;;54.58;;
40286;SDS011;25998;46.604;13.610;2022-11-25T07:21:03;112.60;;;97.28;;
40286;SDS011;25998;46.604;13.610;2022-11-25T07:24:18;82.95;;;71.88;;
40286;SDS011;25998;46.604;13.610;2022-11-25T07:27:29;78.22;;;69.80;;
40286;SDS011;25998;46.604;13.610;2022-11-25T07:30:41;64.18;;;57.20;;
40286;SDS011;25998;46.604;13.610;2022-11-25T07:33:56;56.13;;;50.20;;
40286;SDS011;25998;46.604;13.610;2022-11-25T07:37:09;34.35;;;30.75;;
40286;SDS011;25998;46.604;13.610;2022-11-25T07:40:20;42.53;;;36.95;;
40286;SDS011;25998;46.604;13.610;2022-11-25T07:43:31;29.55;;;26.02;;
40286;SDS011;25998;46.604;13.610;2022-11-25T07:46:43;29.38;;;23.77;;
40286;SDS011;25998;46.604;13.610;2022-11-25T07:49:56;58.08;;;45.70;;
40286;SDS011;25998;46.604;13.610;2022-11-25T07:53:07;40.65;;;32.65;;
40286;SDS011;25998;46.604;13.610;2022-11-25T07:56:18;22.27;;;16.25;;
40286;SDS011;25998;46.604;13.610;2022-11-25T07:59:29;26.45;;;22.23;;
40286;SDS011;25998;46.604;13.610;2022-11-25T08:02:45;21.40;;;17.20;;
40286;SDS011;25998;46.604;13.610;2022-11-25T08:05:58;15.32;;;11.90;;
40286;SDS011;25998;46.604;13.610;2022-11-25T08:09:13;12.05;;;8.48;;
40286;SDS011;25998;46.604;13.610;2022-11-25T08:12:30;11.90;;;7.68;;
40286;SDS011;25998;46.604;13.610;2022-11-25T08:15:41;103.82;;;12.73;;
40286;SDS011;25998;46.604;13.610;2022-11-25T08:18:53;230.75;;;18.27;;
40286;SDS011;25998;46.604;13.610;2022-11-25T08:22:04;230.98;;;22.42;;
40286;SDS011;25998;46.604;13.610;2022-11-25T08:25:16;95.68;;;13.70;;
40286;SDS011;25998;46.604;13.610;2022-11-25T08:28:26;198.40;;;17.48;;
40286;SDS011;25998;46.604;13.610;2022-11-25T08:31:37;178.00;;;20.45;;
40286;SDS011;25998;46.604;13.610;2022-11-25T08:34:48;189.60;;;17.92;;
40286;SDS011;25998;46.604;13.610;2022-11-25T08:37:59;106.63;;;13.65;;
40286;SDS011;25998;46.604;13.610;2022-11-25T08:41:14;161.23;;;16.90;;
40286;SDS011;25998;46.604;13.610;2022-11-25T08:44:27;71.30;;;37.42;;
40286;SDS011;25998;46.604;13.610;2022-11-25T08:47:39;79.38;;;11.43;;
40286;SDS011;25998;46.604;13.610;2022-11-25T08:50:51;53.45;;;7.35;;
40286;SDS011;25998;46.604;13.610;2022-11-25T08:54:04;16.83;;;5.60;;
40286;SDS011;25998;46.604;13.610;2022-11-25T08:57:16;8.32;;;5.32;;
40286;SDS011;25998;46.604;13.610;2022-11-25T09:00:27;7.13;;;4.63;;
40286;SDS011;25998;46.604;13.610;2022-11-25T09:03:39;5.18;;;4.43;;
40286;SDS011;25998;46.604;13.610;2022-11-25T09:06:52;6.57;;;4.00;;
40286;SDS011;25998;46.604;13.610;2022-11-25T09:10:03;5.38;;;4.07;;
40286;SDS011;25998;46.604;13.610;2022-11-25T09:13:16;6.03;;;3.80;;
40286;SDS011;25998;46.604;13.610;2022-11-25T09:16:27;4.90;;;3.75;;
40286;SDS011;25998;46.604;13.610;2022-11-25T09:19:38;5.97;;;3.75;;
40286;SDS011;25998;46.604;13.610;2022-11-25T09:22:48;4.55;;;3.40;;
40286;SDS011;25998;46.604;13.610;2022-11-25T09:25:59;5.53;;;3.63;;
40286;SDS011;25998;46.604;13.610;2022-11-25T09:29:11;5.95;;;5.22;;
40286;SDS011;25998;46.604;13.610;2022-11-25T09:32:23;6.63;;;4.57;;
40286;SDS011;25998;46.604;13.610;2022-11-25T09:35:33;5.53;;;3.92;;
40286;SDS011;25998;46.604;13.610;2022-11-25T09:38:46;21.27;;;5.55;;
40286;SDS011;25998;46.604;13.610;2022-11-25T09:45:48;199.82;;;17.08;;
40286;SDS011;25998;46.604;13.610;2022-11-25T09:49:29;145.88;;;13.07;;
40286;SDS011;25998;46.604;13.610;2022-11-25T09:56:52;120.75;;;10.20;;
40286;SDS011;25998;46.604;13.610;2022-11-25T10:00:16;4.13;;;2.72;;
40286;SDS011;25998;46.604;13.610;2022-11-25T10:03:33;3.65;;;2.80;;
40286;SDS011;25998;46.604;13.610;2022-11-25T10:06:54;3.75;;;2.90;;
40286;SDS011;25998;46.604;13.610;2022-11-25T10:10:14;3.90;;;2.70;;
40286;SDS011;25998;46.604;13.610;2022-11-25T10:13:47;4.20;;;3.20;;
40286;SDS011;25998;46.604;13.610;2022-11-25T10:20:58;159.35;;;14.10;;
40286;SDS011;25998;46.604;13.610;2022-11-25T10:24:39;97.78;;;10.52;;
40286;SDS011;25998;46.604;13.610;2022-11-25T10:31:16;176.88;;;15.32;;
40286;SDS011;25998;46.604;13.610;2022-11-25T10:34:57;223.45;;;17.60;;
40286;SDS011;25998;46.604;13.610;2022-11-25T10:38:26;240.90;;;20.65;;
40286;SDS011;25998;46.604;13.610;2022-11-25T10:42:01;117.13;;;13.75;;
40286;SDS011;25998;46.604;13.610;2022-11-25T10:45:16;321.63;;;23.70;;
40286;SDS011;25998;46.604;13.610;2022-11-25T10:54:57;369.08;;;30.08;;
40286;SDS011;25998;46.604;13.610;2022-11-25T10:58:26;101.13;;;18.63;;
40286;SDS011;25998;46.604;13.610;2022-11-25T11:01:43;73.28;;;12.50;;
40286;SDS011;25998;46.604;13.610;2022-11-25T11:08:27;189.85;;;16.67;;
40286;SDS011;25998;46.604;13.610;2022-11-25T11:11:48;334.80;;;26.00;;
40286;SDS011;25998;46.604;13.610;2022-11-25T11:21:46;260.05;;;23.67;;
40286;SDS011;25998;46.604;13.610;2022-11-25T11:25:04;280.73;;;23.50;;
40286;SDS011;25998;46.604;13.610;2022-11-25T11:28:27;315.80;;;24.52;;
40286;SDS011;25998;46.604;13.610;2022-11-25T11:31:50;323.23;;;26.60;;
40286;SDS011;25998;46.604;13.610;2022-11-25T11:38:31;233.18;;;19.80;;
40286;SDS011;25998;46.604;13.610;2022-11-25T11:41:48;184.82;;;18.58;;
40286;SDS011;25998;46.604;13.610;2022-11-25T11:45:54;179.82;;;18.85;;
40286;SDS011;25998;46.604;13.610;2022-11-25T11:52:15;211.23;;;18.25;;
40286;SDS011;25998;46.604;13.610;2022-11-25T11:55:55;404.55;;;71.00;;
40286;SDS011;25998;46.604;13.610;2022-11-25T12:06:14;70.82;;;15.35;;
40286;SDS011;25998;46.604;13.610;2022-11-25T12:09:27;317.27;;;25.60;;
40286;SDS011;25998;46.604;13.610;2022-11-25T12:12:43;183.23;;;21.33;;
40286;SDS011;25998;46.604;13.610;2022-11-25T12:26:29;171.68;;;21.08;;
40286;SDS011;25998;46.604;13.610;2022-11-25T12:29:56;133.65;;;18.08;;
40286;SDS011;25998;46.604;13.610;2022-11-25T12:36:34;254.60;;;29.88;;
40286;SDS011;25998;46.604;13.610;2022-11-25T12:39:53;154.45;;;20.13;;
40286;SDS011;25998;46.604;13.610;2022-11-25T12:43:20;365.67;;;29.80;;
40286;SDS011;25998;46.604;13.610;2022-11-25T12:46:43;298.27;;;25.45;;
40286;SDS011;25998;46.604;13.610;2022-11-25T12:49:56;522.65;;;43.10;;
40286;SDS011;25998;46.604;13.610;2022-11-25T12:53:11;424.17;;;35.20;;
40286;SDS011;25998;46.604;13.610;2022-11-25T12:56:37;243.20;;;25.25;;
40286;SDS011;25998;46.604;13.610;2022-11-25T13:00:45;271.10;;;26.83;;
40286;SDS011;25998;46.604;13.610;2022-11-25T13:04:46;361.05;;;30.38;;
40286;SDS011;25998;46.604;13.610;2022-11-25T13:08:22;267.08;;;25.88;;
40286;SDS011;25998;46.604;13.610;2022-11-25T13:15:29;99.85;;;16.98;;
40286;SDS011;25998;46.604;13.610;2022-11-25T13:18:54;38.35;;;15.10;;
40286;SDS011;25998;46.604;13.610;2022-11-25T13:25:39;267.45;;;27.88;;
40286;SDS011;25998;46.604;13.610;2022-11-25T13:28:51;266.85;;;25.40;;
40286;SDS011;25998;46.604;13.610;2022-11-25T13:32:03;299.83;;;25.40;;
40286;SDS011;25998;46.604;13.610;2022-11-25T13:35:37;295.25;;;27.08;;
40286;SDS011;25998;46.604;13.610;2022-11-25T13:39:14;333.08;;;27.25;;
40286;SDS011;25998;46.604;13.610;2022-11-25T13:42:26;401.88;;;33.42;;
40286;SDS011;25998;46.604;13.610;2022-11-25T13:45:38;336.98;;;29.30;;
40286;SDS011;25998;46.604;13.610;2022-11-25T13:48:55;379.50;;;34.60;;
40286;SDS011;25998;46.604;13.610;2022-11-25T13:55:24;419.15;;;52.40;;
40286;SDS011;25998;46.604;13.610;2022-11-25T14:22:55;237.25;;;25.48;;
40286;SDS011;25998;46.604;13.610;2022-11-25T14:26:34;364.33;;;34.05;;
40286;SDS011;25998;46.604;13.610;2022-11-25T14:33:11;429.95;;;40.30;;
40286;SDS011;25998;46.604;13.610;2022-11-25T14:36:31;235.02;;;25.30;;
40286;SDS011;25998;46.604;13.610;2022-11-25T14:39:48;270.55;;;28.33;;
40286;SDS011;25998;46.604;13.610;2022-11-25T14:43:11;491.83;;;40.85;;
40286;SDS011;25998;46.604;13.610;2022-11-25T14:46:32;275.73;;;30.70;;
40286;SDS011;25998;46.604;13.610;2022-11-25T14:49:47;138.32;;;21.95;;
40286;SDS011;25998;46.604;13.610;2022-11-25T14:53:05;282.08;;;25.73;;
40286;SDS011;25998;46.604;13.610;2022-11-25T14:56:23;179.27;;;21.67;;
40286;SDS011;25998;46.604;13.610;2022-11-25T14:59:36;403.33;;;35.22;;
40286;SDS011;25998;46.604;13.610;2022-11-25T15:02:55;386.88;;;31.85;;
40286;SDS011;25998;46.604;13.610;2022-11-25T15:06:11;373.08;;;30.45;;
40286;SDS011;25998;46.604;13.610;2022-11-25T15:12:36;123.68;;;16.42;;
40286;SDS011;25998;46.604;13.610;2022-11-25T15:15:47;273.45;;;26.33;;
40286;SDS011;25998;46.604;13.610;2022-11-25T15:19:05;227.48;;;22.15;;
40286;SDS011;25998;46.604;13.610;2022-11-25T15:22:29;291.15;;;24.65;;
40286;SDS011;25998;46.604;13.610;2022-11-25T15:25:52;266.98;;;24.30;;
40286;SDS011;25998;46.604;13.610;2022-11-25T15:29:09;282.98;;;24.25;;
40286;SDS011;25998;46.604;13.610;2022-11-25T15:32:29;322.98;;;25.73;;
40286;SDS011;25998;46.604;13.610;2022-11-25T15:35:41;269.80;;;22.90;;
40286;SDS011;25998;46.604;13.610;2022-11-25T15:38:52;145.40;;;19.08;;
40286;SDS011;25998;46.604;13.610;2022-11-25T15:42:18;246.27;;;21.60;;
40286;SDS011;25998;46.604;13.610;2022-11-25T15:45:53;163.52;;;18.77;;
40286;SDS011;25998;46.604;13.610;2022-11-25T15:49:13;228.95;;;22.70;;
40286;SDS011;25998;46.604;13.610;2022-11-25T15:52:28;105.65;;;15.73;;
40286;SDS011;25998;46.604;13.610;2022-11-25T15:55:41;151.10;;;46.05;;
40286;SDS011;25998;46.604;13.610;2022-11-25T15:58:52;154.50;;;33.92;;
40286;SDS011;25998;46.604;13.610;2022-11-25T16:05:53;129.25;;;16.40;;
40286;SDS011;25998;46.604;13.610;2022-11-25T16:09:15;74.05;;;16.25;;
40286;SDS011;25998;46.604;13.610;2022-11-25T16:12:30;54.08;;;17.90;;
40286;SDS011;25998;46.604;13.610;2022-11-25T16:15:45;46.75;;;14.18;;
40286;SDS011;25998;46.604;13.610;2022-11-25T16:19:10;202.50;;;61.22;;
40286;SDS011;25998;46.604;13.610;2022-11-25T16:22:24;144.55;;;21.13;;
40286;SDS011;25998;46.604;13.610;2022-11-25T16:25:35;148.27;;;22.67;;
40286;SDS011;25998;46.604;13.610;2022-11-25T16:28:51;275.50;;;29.42;;
40286;SDS011;25998;46.604;13.610;2022-11-25T16:32:11;252.45;;;23.73;;
40286;SDS011;25998;46.604;13.610;2022-11-25T16:35:26;155.15;;;29.05;;
40286;SDS011;25998;46.604;13.610;2022-11-25T16:38:36;88.15;;;15.73;;
40286;SDS011;25998;46.604;13.610;2022-11-25T16:41:53;122.90;;;35.67;;
40286;SDS011;25998;46.604;13.610;2022-11-25T16:45:23;293.77;;;32.33;;
40286;SDS011;25998;46.604;13.610;2022-11-25T16:48:35;367.48;;;31.63;;
40286;SDS011;25998;46.604;13.610;2022-11-25T16:51:46;252.93;;;22.27;;
40286;SDS011;25998;46.604;13.610;2022-11-25T16:55:01;122.53;;;16.67;;
40286;SDS011;25998;46.604;13.610;2022-11-25T16:58:19;108.28;;;47.05;;
40286;SDS011;25998;46.604;13.610;2022-11-25T17:01:33;34.47;;;12.15;;
40286;SDS011;25998;46.604;13.610;2022-11-25T17:04:44;25.17;;;17.73;;
40286;SDS011;25998;46.604;13.610;2022-11-25T17:07:56;27.85;;;11.52;;
40286;SDS011;25998;46.604;13.610;2022-11-25T17:11:17;25.20;;;14.73;;
40286;SDS011;25998;46.604;13.610;2022-11-25T17:14:39;39.38;;;13.23;;
40286;SDS011;25998;46.604;13.610;2022-11-25T17:17:50;131.63;;;16.90;;
40286;SDS011;25998;46.604;13.610;2022-11-25T17:21:02;117.05;;;17.88;;
40286;SDS011;25998;46.604;13.610;2022-11-25T17:24:20;71.35;;;12.73;;
40286;SDS011;25998;46.604;13.610;2022-11-25T17:27:33;16.60;;;10.30;;
40286;SDS011;25998;46.604;13.610;2022-11-25T17:30:46;75.47;;;37.25;;
40286;SDS011;25998;46.604;13.610;2022-11-25T17:33:57;18.88;;;13.27;;
40286;SDS011;25998;46.604;13.610;2022-11-25T17:37:12;34.63;;;12.80;;
40286;SDS011;25998;46.604;13.610;2022-11-25T17:40:24;43.80;;;12.82;;
40286;SDS011;25998;46.604;13.610;2022-11-25T17:43:35;144.32;;;15.15;;
40286;SDS011;25998;46.604;13.610;2022-11-25T17:46:47;85.18;;;14.00;;
40286;SDS011;25998;46.604;13.610;2022-11-25T17:49:58;42.30;;;11.90;;
40286;SDS011;25998;46.604;13.610;2022-11-25T17:53:09;131.55;;;15.27;;
40286;SDS011;25998;46.604;13.610;2022-11-25T17:56:27;107.20;;;13.55;;
40286;SDS011;25998;46.604;13.610;2022-11-25T17:59:39;98.82;;;13.50;;
40286;SDS011;25998;46.604;13.610;2022-11-25T18:02:50;29.20;;;10.68;;
40286;SDS011;25998;46.604;13.610;2022-11-25T18:06:01;21.02;;;9.93;;
40286;SDS011;25998;46.604;13.610;2022-11-25T18:09:12;18.40;;;9.98;;
40286;SDS011;25998;46.604;13.610;2022-11-25T18:12:27;14.25;;;8.80;;
40286;SDS011;25998;46.604;13.610;2022-11-25T18:15:39;11.45;;;8.95;;
40286;SDS011;25998;46.604;13.610;2022-11-25T18:18:50;12.52;;;9.63;;
40286;SDS011;25998;46.604;13.610;2022-11-25T18:22:07;10.73;;;8.27;;
40286;SDS011;25998;46.604;13.610;2022-11-25T18:25:22;12.18;;;9.52;;
40286;SDS011;25998;46.604;13.610;2022-11-25T18:28:39;14.32;;;9.77;;
40286;SDS011;25998;46.604;13.610;2022-11-25T18:31:51;11.48;;;9.05;;
40286;SDS011;25998;46.604;13.610;2022-11-25T18:35:04;10.80;;;9.63;;
40286;SDS011;25998;46.604;13.610;2022-11-25T18:38:27;12.60;;;10.23;;
40286;SDS011;25998;46.604;13.610;2022-11-25T18:41:38;17.15;;;13.88;;
40286;SDS011;25998;46.604;13.610;2022-11-25T18:44:50;15.25;;;12.65;;
40286;SDS011;25998;46.604;13.610;2022-11-25T18:48:15;15.05;;;11.85;;
40286;SDS011;25998;46.604;13.610;2022-11-25T18:51:28;15.90;;;11.68;;
40286;SDS011;25998;46.604;13.610;2022-11-25T18:54:38;18.85;;;14.95;;
40286;SDS011;25998;46.604;13.610;2022-11-25T18:57:52;19.80;;;15.32;;
40286;SDS011;25998;46.604;13.610;2022-11-25T19:01:04;19.35;;;13.98;;
40286;SDS011;25998;46.604;13.610;2022-11-25T19:04:20;16.15;;;11.93;;
40286;SDS011;25998;46.604;13.610;2022-11-25T19:07:31;18.08;;;13.40;;
40286;SDS011;25998;46.604;13.610;2022-11-25T19:10:42;16.92;;;11.70;;
40286;SDS011;25998;46.604;13.610;2022-11-25T19:13:56;13.73;;;11.32;;
40286;SDS011;25998;46.604;13.610;2022-11-25T19:17:19;15.35;;;11.82;;
40286;SDS011;25998;46.604;13.610;2022-11-25T19:20:33;15.52;;;12.23;;
40286;SDS011;25998;46.604;13.610;2022-11-25T19:23:44;16.52;;;12.05;;
40286;SDS011;25998;46.604;13.610;2022-11-25T19:26:55;14.27;;;10.98;;
40286;SDS011;25998;46.604;13.610;2022-11-25T19:30:08;18.60;;;13.43;;
40286;SDS011;25998;46.604;13.610;2022-11-25T19:33:32;17.40;;;12.80;;
40286;SDS011;25998;46.604;13.610;2022-11-25T19:36:44;16.27;;;11.10;;
40286;SDS011;25998;46.604;13.610;2022-11-25T19:39:58;12.77;;;9.85;;
40286;SDS011;25998;46.604;13.610;2022-11-25T19:43:09;14.93;;;11.38;;
40286;SDS011;25998;46.604;13.610;2022-11-25T19:46:26;13.80;;;10.60;;
40286;SDS011;25998;46.604;13.610;2022-11-25T19:49:39;13.70;;;10.23;;
40286;SDS011;25998;46.604;13.610;2022-11-25T19:52:50;12.38;;;10.30;;
40286;SDS011;25998;46.604;13.610;2022-11-25T19:56:05;15.32;;;11.23;;
40286;SDS011;25998;46.604;13.610;2022-11-25T19:59:20;14.30;;;10.93;;
40286;SDS011;25998;46.604;13.610;2022-11-25T20:02:31;14.20;;;9.95;;
40286;SDS011;25998;46.604;13.610;2022-11-25T20:05:42;13.13;;;9.32;;
40286;SDS011;25998;46.604;13.610;2022-11-25T20:08:53;11.85;;;9.02;;
40286;SDS011;25998;46.604;13.610;2022-11-25T20:12:16;11.57;;;9.40;;
40286;SDS011;25998;46.604;13.610;2022-11-25T20:15:30;12.95;;;9.63;;
40286;SDS011;25998;46.604;13.610;2022-11-25T20:18:41;11.27;;;8.27;;
40286;SDS011;25998;46.604;13.610;2022-11-25T20:21:53;14.43;;;8.73;;
40286;SDS011;25998;46.604;13.610;2022-11-25T20:25:05;10.25;;;8.45;;
40286;SDS011;25998;46.604;13.610;2022-11-25T20:28:23;11.48;;;9.20;;
40286;SDS011;25998;46.604;13.610;2022-11-25T20:31:35;11.10;;;7.82;;
40286;SDS011;25998;46.604;13.610;2022-11-25T20:34:46;10.52;;;7.65;;
40286;SDS011;25998;46.604;13.610;2022-11-25T20:37:57;18.15;;;8.75;;
40286;SDS011;25998;46.604;13.610;2022-11-25T20:41:09;28.48;;;10.65;;
40286;SDS011;25998;46.604;13.610;2022-11-25T20:44:21;273.42;;;25.80;;